createdAt,value
2022-11-27T09:33:14.759Z,56420.39
2022-11-27T09:34:17.737Z,57280.98
2022-11-27T09:35:22.767Z,57420.41
2022-11-27T09:36:26.663Z,57493.64
2022-11-27T09:37:30.344Z,57577.91
2022-11-27T09:38:33.335Z,57672.21
2022-11-27T09:39:36.831Z,57694.29
2022-11-27T09:40:39.900Z,57701.30
2022-11-27T09:41:42.669Z,57709.33
2022-11-27T09:42:45.448Z,57768.52
2022-11-27T09:43:48.527Z,57806.65
2022-11-27T09:44:54.168Z,57780.56
2022-11-27T09:46:08.299Z,57748.46
2022-11-27T09:47:11.070Z,57693.28
2022-11-27T09:48:14.588Z,57622.05
2022-11-27T09:49:20.159Z,57512.70
2022-11-27T09:50:23.798Z,57455.52
2022-11-27T09:51:27.508Z,57354.20
2022-11-27T09:52:31.389Z,57349.19
2022-11-27T09:53:34.669Z,57314.08
2022-11-27T09:54:37.999Z,57355.21
2022-11-27T09:55:41.905Z,57470.57
2022-11-27T09:56:45.467Z,57584.93
2022-11-27T09:57:48.527Z,57744.45
2022-11-27T09:58:51.401Z,57884.90
2022-11-27T09:59:54.782Z,57952.12
2022-11-27T10:00:58.277Z,58131.71
2022-11-27T10:02:01.884Z,58271.18
2022-11-27T10:03:04.993Z,58319.34
2022-11-27T10:04:07.831Z,58302.29
2022-11-27T10:05:14.779Z,58232.05
2022-11-27T10:06:15.929Z,58113.66
2022-11-27T10:07:20.381Z,57987.24
2022-11-27T10:08:23.519Z,57769.53
2022-11-27T10:09:27.104Z,57543.80
2022-11-27T10:10:30.808Z,57161.61
2022-11-27T10:11:37.269Z,56292.02
2022-11-27T10:12:40.239Z,54573.47
2022-11-27T10:13:44.144Z,54513.32
2022-11-27T10:14:47.828Z,54408.07
2022-11-27T10:15:50.909Z,54362.96
2022-11-27T10:16:54.490Z,54348.93
2022-11-27T10:17:59.633Z,54294.80
2022-11-27T10:19:02.709Z,54288.79
2022-11-27T10:20:05.690Z,54228.64
2022-11-27T10:21:08.763Z,54225.64
2022-11-27T10:22:14.276Z,54205.59
2022-11-27T10:23:16.564Z,54174.52
2022-11-27T10:24:19.549Z,54144.45
2022-11-27T10:25:22.617Z,54180.53
2022-11-27T10:26:26.002Z,54153.47
2022-11-27T10:27:29.086Z,54148.46
2022-11-27T10:28:31.856Z,54174.52
2022-11-27T10:29:35.913Z,54216.62
2022-11-27T10:30:38.947Z,54217.62
2022-11-27T10:31:43.003Z,54262.72
2022-11-27T10:32:55.279Z,54334.89
2022-11-27T10:33:51.670Z,54391.03
2022-11-27T10:34:55.039Z,54461.20
2022-11-27T10:35:58.225Z,54515.33
2022-11-27T10:37:01.197Z,54529.36
2022-11-27T10:38:07.108Z,54649.65
2022-11-27T10:39:08.594Z,54688.75
2022-11-27T10:40:11.373Z,54676.72
2022-11-27T10:41:34.295Z,54653.66
2022-11-27T10:42:19.155Z,54675.72
2022-11-27T10:43:22.457Z,54662.69
2022-11-27T10:44:25.437Z,54630.61
2022-11-27T10:45:28.618Z,54660.68
2022-11-27T10:46:31.683Z,54673.71
2022-11-27T10:47:34.565Z,54694.77
2022-11-27T10:48:37.334Z,54684.74
2022-11-27T10:49:40.512Z,54701.78
2022-11-27T10:50:43.286Z,54687.75
2022-11-27T10:51:46.268Z,54768.95
2022-11-27T10:52:52.394Z,54768.95
2022-11-27T10:53:53.439Z,54724.84
2022-11-27T10:54:56.330Z,54752.91
2022-11-27T10:55:59.103Z,54721.83
2022-11-27T10:57:02.060Z,54715.82
2022-11-27T10:58:04.875Z,54671.71
2022-11-27T10:59:07.607Z,54725.84
2022-11-27T11:00:10.794Z,54647.65
2022-11-27T11:01:13.748Z,54679.73
2022-11-27T11:02:16.586Z,54649.65
2022-11-27T11:03:19.424Z,54699.78
2022-11-27T11:04:37.589Z,54733.86
2022-11-27T11:06:11.678Z,54720.83
2022-11-27T11:06:31.234Z,54708.80
2022-11-27T11:07:34.546Z,54695.77
2022-11-27T11:08:37.586Z,54705.79
2022-11-27T11:09:40.678Z,54676.72
2022-11-27T11:10:43.639Z,54673.71
2022-11-27T11:11:46.607Z,54617.57
2022-11-27T11:12:49.496Z,54641.63
2022-11-27T11:13:52.778Z,54571.46
2022-11-27T11:14:55.859Z,54571.46
2022-11-27T11:15:58.729Z,54559.43
2022-11-27T11:17:01.834Z,54541.39
2022-11-27T11:18:04.691Z,54529.36
2022-11-27T11:19:08.165Z,54505.30
2022-11-27T11:20:11.554Z,54508.31
2022-11-27T11:21:14.847Z,54507.31
2022-11-27T11:22:18.052Z,54474.23
2022-11-27T11:23:20.996Z,54466.21
2022-11-27T11:24:24.197Z,54482.25
2022-11-27T11:25:27.472Z,54501.29
2022-11-27T11:26:30.543Z,54510.32
2022-11-27T11:27:33.522Z,54531.36
2022-11-27T11:28:39.633Z,54537.38
2022-11-27T11:29:41.458Z,54547.40
2022-11-27T11:30:44.950Z,54591.51
2022-11-27T11:31:48.142Z,54591.51
2022-11-27T11:32:51.067Z,54603.54
2022-11-27T11:33:54.049Z,54657.68
2022-11-27T11:35:00.903Z,54695.77
2022-11-27T11:36:01.437Z,54705.79
2022-11-27T11:37:04.422Z,54764.94
2022-11-27T11:38:07.391Z,54838.12
2022-11-27T11:39:10.364Z,54925.34
2022-11-27T11:40:16.233Z,55012.56
2022-11-27T11:41:19.952Z,55205.05
2022-11-27T11:42:22.995Z,56663.10
2022-11-27T11:43:26.474Z,56873.73
2022-11-27T11:44:29.551Z,56919.87
2022-11-27T11:45:33.398Z,56933.91
2022-11-27T11:46:36.764Z,56828.59
2022-11-27T11:47:39.603Z,56733.31
2022-11-27T11:48:42.890Z,56587.88
2022-11-27T11:49:46.176Z,56342.16
2022-11-27T11:50:49.459Z,56150.62
2022-11-27T11:51:52.553Z,55038.62
2022-11-27T11:52:55.216Z,55000.53
2022-11-27T11:53:58.915Z,54956.42
2022-11-27T11:55:01.877Z,54926.34
2022-11-27T11:56:04.967Z,54940.38
2022-11-27T11:57:07.632Z,54947.39
2022-11-27T11:58:10.507Z,54889.25
2022-11-27T11:59:13.275Z,55068.70
2022-11-27T12:00:16.567Z,56589.88
2022-11-27T12:01:26.835Z,57020.17
2022-11-27T12:02:25.048Z,57310.07
2022-11-27T12:03:27.760Z,57431.45
2022-11-27T12:04:30.975Z,57511.70
2022-11-27T12:05:34.430Z,57642.12
2022-11-27T12:06:37.702Z,57776.55
2022-11-27T12:07:40.754Z,57894.93
2022-11-27T12:08:44.168Z,57931.05
2022-11-27T12:09:47.455Z,58230.04
2022-11-27T12:10:50.527Z,58390.59
2022-11-27T12:11:53.719Z,58471.86
2022-11-27T12:12:56.688Z,58512.00
2022-11-27T12:14:00.406Z,58519.02
2022-11-27T12:15:03.874Z,58461.83
2022-11-27T12:16:07.069Z,58414.67
2022-11-27T12:17:10.250Z,58370.52
2022-11-27T12:18:13.417Z,58296.27
2022-11-27T12:19:16.495Z,58157.80
2022-11-27T12:20:19.984Z,57940.08
2022-11-27T12:21:23.372Z,57657.16
2022-11-27T12:22:26.357Z,57330.13
2022-11-27T12:23:30.145Z,56943.94
2022-11-27T12:24:33.226Z,56673.13
2022-11-27T12:25:36.196Z,56249.90
2022-11-27T12:26:39.690Z,55034.62
2022-11-27T12:27:42.966Z,54932.36
2022-11-27T12:28:45.748Z,54849.15
2022-11-27T12:29:49.445Z,54780.98
2022-11-27T12:30:52.830Z,54743.89
2022-11-27T12:31:56.455Z,54662.69
2022-11-27T12:32:59.800Z,54594.52
2022-11-27T12:34:02.794Z,54540.39
2022-11-27T12:35:06.071Z,54487.26
2022-11-27T12:36:08.837Z,54450.17
2022-11-27T12:37:14.038Z,54398.05
2022-11-27T12:38:16.125Z,54378.00
2022-11-27T12:39:19.507Z,54314.85
2022-11-27T12:40:22.381Z,54283.77
2022-11-27T12:41:25.565Z,54235.66
2022-11-27T12:42:28.748Z,54212.61
2022-11-27T12:43:31.824Z,54206.59
2022-11-27T12:44:35.225Z,54197.57
2022-11-27T12:45:38.130Z,54152.46
2022-11-27T12:46:41.376Z,54158.48
2022-11-27T12:47:44.659Z,54152.46
2022-11-27T12:48:47.743Z,54132.42
2022-11-27T12:49:50.821Z,54094.33
2022-11-27T12:50:54.102Z,54058.25
2022-11-27T12:51:57.501Z,54081.30
2022-11-27T12:53:00.874Z,54062.26
2022-11-27T12:54:03.692Z,54044.21
2022-11-27T12:55:06.520Z,54060.25
2022-11-27T12:56:09.295Z,54060.25
2022-11-27T12:57:12.370Z,54005.13
2022-11-27T12:58:15.350Z,54026.18
2022-11-27T12:59:18.633Z,54008.13
2022-11-27T13:00:22.034Z,54009.14
2022-11-27T13:01:26.779Z,54009.14
2022-11-27T13:02:29.598Z,53973.05
2022-11-27T13:03:32.599Z,53959.02
2022-11-27T13:04:35.260Z,53944.99
2022-11-27T13:05:38.130Z,53945.99
2022-11-27T13:06:41.111Z,53905.90
2022-11-27T13:07:43.946Z,53919.93
2022-11-27T13:08:52.090Z,53911.91
2022-11-27T13:09:51.586Z,53892.87
2022-11-27T13:10:54.346Z,53888.86
2022-11-27T13:11:57.458Z,53876.84
2022-11-27T13:13:00.302Z,53875.83
2022-11-27T13:14:03.277Z,53814.70
2022-11-27T13:15:06.365Z,53813.69
2022-11-27T13:16:09.553Z,53836.75
2022-11-27T13:17:12.319Z,53807.68
2022-11-27T13:18:15.407Z,53774.61
2022-11-27T13:19:18.580Z,53818.70
2022-11-27T13:20:21.766Z,53804.67
2022-11-27T13:21:24.841Z,53799.66
2022-11-27T13:22:28.017Z,53792.64
2022-11-27T13:23:31.410Z,53762.58
2022-11-27T13:24:34.588Z,53752.55
2022-11-27T13:25:37.776Z,53779.62
2022-11-27T13:26:41.249Z,53766.59
2022-11-27T13:27:44.751Z,53766.59
2022-11-27T13:28:47.926Z,53795.65
2022-11-27T13:29:51.109Z,53742.54
2022-11-27T13:30:54.801Z,53769.59
2022-11-27T13:31:57.951Z,53743.54
2022-11-27T13:33:01.069Z,53737.52
2022-11-27T13:34:03.955Z,53749.55
2022-11-27T13:35:06.925Z,53730.51
2022-11-27T13:36:09.907Z,53765.59
2022-11-27T13:37:13.393Z,53729.50
2022-11-27T13:38:16.562Z,53737.52
2022-11-27T13:39:19.849Z,53778.61
2022-11-27T13:40:23.047Z,53738.52
2022-11-27T13:41:26.112Z,53721.49
2022-11-27T13:42:29.520Z,53765.59
2022-11-27T13:43:32.781Z,53759.57
2022-11-27T13:44:36.291Z,53755.56
2022-11-27T13:45:39.407Z,53771.60
2022-11-27T13:46:42.530Z,53743.54
2022-11-27T13:47:45.503Z,53740.53
2022-11-27T13:48:48.484Z,53729.50
2022-11-27T13:49:51.366Z,53727.50
2022-11-27T13:50:54.389Z,53768.59
2022-11-27T13:51:57.939Z,53727.50
2022-11-27T13:53:01.110Z,53756.57
2022-11-27T13:54:03.882Z,53703.45
2022-11-27T13:55:06.653Z,53693.43
2022-11-27T13:56:09.333Z,53715.47
2022-11-27T13:57:12.209Z,53737.52
2022-11-27T13:58:15.381Z,53713.47
2022-11-27T13:59:18.250Z,53739.53
2022-11-27T14:00:21.129Z,53721.49
2022-11-27T14:01:23.957Z,53709.46
2022-11-27T14:02:26.722Z,53705.45
2022-11-27T14:03:29.451Z,53690.42
2022-11-27T14:04:32.340Z,53707.46
2022-11-27T14:05:35.205Z,53703.45
2022-11-27T14:06:38.170Z,53720.48
2022-11-27T14:07:41.252Z,53705.45
2022-11-27T14:08:44.224Z,53711.46
2022-11-27T14:09:47.020Z,53701.44
2022-11-27T14:10:49.885Z,53720.48
2022-11-27T14:11:52.960Z,53701.44
2022-11-27T14:12:56.382Z,53709.46
2022-11-27T14:13:59.731Z,53704.45
2022-11-27T14:15:03.021Z,53696.43
2022-11-27T14:16:05.739Z,53729.50
2022-11-27T14:17:08.662Z,53719.48
2022-11-27T14:18:11.851Z,53725.50
2022-11-27T14:19:14.931Z,53716.48
2022-11-27T14:20:17.823Z,53698.44
2022-11-27T14:21:21.202Z,53722.49
2022-11-27T14:22:23.953Z,53707.46
2022-11-27T14:23:26.830Z,53697.43
2022-11-27T14:24:29.815Z,53754.56
2022-11-27T14:25:32.578Z,53701.44
2022-11-27T14:26:35.452Z,53705.45
2022-11-27T14:27:38.128Z,53726.50
2022-11-27T14:28:41.122Z,53733.51
2022-11-27T14:29:44.182Z,53737.52
2022-11-27T14:30:47.051Z,53710.46
2022-11-27T14:31:50.185Z,53719.48
2022-11-27T14:32:53.014Z,53688.41
2022-11-27T14:35:00.400Z,53733.51
2022-11-27T14:36:03.277Z,53733.51
2022-11-27T14:37:06.361Z,53727.50
2022-11-27T14:38:09.220Z,53714.47
2022-11-27T14:39:12.002Z,53727.50
2022-11-27T14:40:14.772Z,53761.58
2022-11-27T14:41:17.958Z,53777.61
2022-11-27T14:42:24.019Z,53733.51
2022-11-27T14:43:25.235Z,53727.50
2022-11-27T14:44:28.211Z,53735.52
2022-11-27T14:45:31.093Z,53721.49
2022-11-27T14:46:33.924Z,53725.50
2022-11-27T14:47:36.640Z,53706.45
2022-11-27T14:48:39.710Z,53734.52
2022-11-27T14:49:42.920Z,53735.52
2022-11-27T14:50:46.180Z,53738.52
2022-11-27T14:51:49.152Z,53734.52
2022-11-27T14:52:52.356Z,53722.49
2022-11-27T14:53:55.421Z,53687.41
2022-11-27T14:54:58.288Z,53709.46
2022-11-27T14:56:01.262Z,53722.49
2022-11-27T14:57:04.549Z,53733.51
2022-11-27T14:58:07.218Z,53711.46
2022-11-27T14:59:10.401Z,53725.50
2022-11-27T15:00:13.175Z,53725.50
2022-11-27T15:01:16.153Z,53734.52
2022-11-27T15:02:19.999Z,53719.48
2022-11-27T15:03:24.049Z,53721.49
2022-11-27T15:04:27.131Z,53743.54
2022-11-27T15:05:30.332Z,53722.49
2022-11-27T15:06:33.299Z,53713.47
2022-11-27T15:07:43.984Z,53737.52
2022-11-27T15:08:41.092Z,53721.49
2022-11-27T15:09:44.298Z,53741.53
2022-11-27T15:10:48.785Z,53747.55
2022-11-27T15:11:56.122Z,53759.57
2022-11-27T15:12:55.973Z,53730.51
2022-11-27T15:13:59.152Z,53786.63
2022-11-27T15:15:01.818Z,53762.58
2022-11-27T15:16:05.096Z,53765.59
2022-11-27T15:17:08.083Z,53772.60
2022-11-27T15:18:11.161Z,53742.54
2022-11-27T15:19:14.347Z,53762.58
2022-11-27T15:20:17.422Z,53768.59
2022-11-27T15:21:20.288Z,53773.60
2022-11-27T15:22:23.092Z,53766.59
2022-11-27T15:23:26.072Z,53784.63
2022-11-27T15:24:29.018Z,53775.61
2022-11-27T15:25:31.906Z,53786.63
2022-11-27T15:26:34.973Z,53771.60
2022-11-27T15:27:37.852Z,53761.58
2022-11-27T15:28:41.036Z,53776.61
2022-11-27T15:29:44.732Z,53771.60
2022-11-27T15:30:47.711Z,53799.66
2022-11-27T15:31:50.652Z,53792.64
2022-11-27T15:32:53.687Z,53787.64
2022-11-27T15:33:57.050Z,53777.61
2022-11-27T15:35:00.140Z,53797.66
2022-11-27T15:36:03.227Z,53813.69
2022-11-27T15:37:06.389Z,53783.62
2022-11-27T15:38:09.050Z,53822.71
2022-11-27T15:39:12.027Z,53777.61
2022-11-27T15:40:15.532Z,53802.67
2022-11-27T15:41:18.523Z,53806.68
2022-11-27T15:42:21.685Z,53767.59
2022-11-27T15:43:25.178Z,53788.64
2022-11-27T15:44:28.368Z,53767.59
2022-11-27T15:45:31.664Z,53803.67
2022-11-27T15:46:34.816Z,53811.69
2022-11-27T15:47:38.002Z,53794.65
2022-11-27T15:48:40.975Z,53810.68
2022-11-27T15:49:44.159Z,53782.62
2022-11-27T15:50:51.656Z,53831.73
2022-11-27T15:51:52.058Z,53803.67
2022-11-27T15:52:55.339Z,53788.64
2022-11-27T15:53:58.534Z,53816.70
2022-11-27T15:55:01.606Z,53800.66
2022-11-27T15:56:04.470Z,53826.72
2022-11-27T15:57:07.656Z,53812.69
2022-11-27T15:58:10.430Z,53837.75
2022-11-27T15:59:13.828Z,53841.75
2022-11-27T16:00:16.598Z,53847.77
2022-11-27T16:01:19.977Z,53808.68
2022-11-27T16:02:23.203Z,53822.71
2022-11-27T16:03:26.442Z,53819.71
2022-11-27T16:04:29.843Z,53817.70
2022-11-27T16:05:33.118Z,53835.74
2022-11-27T16:06:36.208Z,53804.67
2022-11-27T16:07:39.141Z,53836.75
2022-11-27T16:08:42.241Z,53798.66
2022-11-27T16:09:45.529Z,53807.68
2022-11-27T16:10:48.821Z,53845.77
2022-11-27T16:11:52.102Z,53827.72
2022-11-27T16:12:55.445Z,53825.72
2022-11-27T16:13:58.460Z,53831.73
2022-11-27T16:15:01.964Z,53854.79
2022-11-27T16:16:05.299Z,53852.78
2022-11-27T16:17:08.114Z,53830.73
2022-11-27T16:18:11.187Z,53822.71
2022-11-27T16:19:14.170Z,53847.77
2022-11-27T16:20:17.144Z,53834.74
2022-11-27T16:21:19.916Z,53816.70
2022-11-27T16:22:23.211Z,53833.74
2022-11-27T16:23:26.512Z,53841.75
2022-11-27T16:24:29.664Z,53823.71
2022-11-27T16:25:33.053Z,53845.77
2022-11-27T16:26:36.235Z,53861.80
2022-11-27T16:27:38.910Z,53823.71
2022-11-27T16:28:41.773Z,53858.79
2022-11-27T16:29:44.968Z,53870.82
2022-11-27T16:30:47.944Z,53863.80
2022-11-27T16:31:50.856Z,53842.76
2022-11-27T16:32:53.789Z,53822.71
2022-11-27T16:33:56.664Z,53841.75
2022-11-27T16:35:00.052Z,53857.79
2022-11-27T16:36:02.840Z,53848.77
2022-11-27T16:37:05.822Z,53848.77
2022-11-27T16:38:08.580Z,53864.81
2022-11-27T16:39:12.496Z,53855.79
2022-11-27T16:40:15.264Z,53855.79
2022-11-27T16:41:18.126Z,53845.77
2022-11-27T16:42:21.404Z,53847.77
2022-11-27T16:43:24.496Z,53829.73
2022-11-27T16:44:27.667Z,53843.76
2022-11-27T16:45:30.988Z,53879.84
2022-11-27T16:46:34.454Z,53861.80
2022-11-27T16:47:37.823Z,53850.78
2022-11-27T16:48:41.431Z,53848.77
2022-11-27T16:49:44.703Z,53865.81
2022-11-27T16:50:47.888Z,53852.78
2022-11-27T16:51:51.067Z,53886.86
2022-11-27T16:52:54.739Z,53885.86
2022-11-27T16:53:57.862Z,53856.79
2022-11-27T16:55:01.130Z,53831.73
2022-11-27T16:56:04.510Z,53837.75
2022-11-27T16:57:07.586Z,53879.84
2022-11-27T16:58:10.971Z,53839.75
2022-11-27T16:59:13.745Z,53863.80
2022-11-27T17:00:16.824Z,53867.81
2022-11-27T17:01:20.827Z,53854.79
2022-11-27T17:02:24.054Z,53916.93
2022-11-27T17:03:27.407Z,53885.86
2022-11-27T17:04:30.680Z,53886.86
2022-11-27T17:05:33.974Z,53853.78
2022-11-27T17:06:37.352Z,53853.78
2022-11-27T17:07:40.457Z,53859.80
2022-11-27T17:08:43.706Z,53882.85
2022-11-27T17:09:46.791Z,53879.84
2022-11-27T17:10:50.073Z,53891.87
2022-11-27T17:11:53.068Z,53887.86
2022-11-27T17:12:56.151Z,53905.90
2022-11-27T17:13:59.127Z,53891.87
2022-11-27T17:15:01.890Z,53903.90
2022-11-27T17:16:04.621Z,53883.85
2022-11-27T17:17:07.648Z,53899.89
2022-11-27T17:18:10.508Z,53875.83
2022-11-27T17:19:13.488Z,53911.91
2022-11-27T17:20:16.363Z,53886.86
2022-11-27T17:21:19.539Z,53913.92
2022-11-27T17:22:22.311Z,53909.91
2022-11-27T17:23:25.188Z,53894.88
2022-11-27T17:24:27.853Z,53915.92
2022-11-27T17:25:30.936Z,53914.92
2022-11-27T17:26:34.334Z,53899.89
2022-11-27T17:27:37.203Z,53888.86
2022-11-27T17:28:40.075Z,53923.94
2022-11-27T17:29:43.797Z,53910.91
2022-11-27T17:30:46.743Z,53949.00
2022-11-27T17:31:49.743Z,53916.93
2022-11-27T17:32:52.495Z,53935.97
2022-11-27T17:33:55.163Z,53941.98
2022-11-27T17:34:58.349Z,53917.93
2022-11-27T17:36:01.326Z,53931.96
2022-11-27T17:37:04.230Z,53918.93
2022-11-27T17:38:07.271Z,53959.02
2022-11-27T17:39:10.253Z,53945.99
2022-11-27T17:40:13.019Z,53933.96
2022-11-27T17:41:16.010Z,53958.02
2022-11-27T17:42:22.698Z,53916.93
2022-11-27T17:43:23.190Z,53935.97
2022-11-27T17:44:26.467Z,53982.07
2022-11-27T17:45:29.332Z,53957.02
2022-11-27T17:46:32.221Z,53970.05
2022-11-27T17:47:35.088Z,53957.02
2022-11-27T17:48:38.068Z,53983.08
2022-11-27T17:49:41.242Z,53942.98
2022-11-27T17:50:44.230Z,53958.02
2022-11-27T17:51:47.097Z,54008.13
2022-11-27T17:52:49.979Z,53978.06
2022-11-27T17:53:52.950Z,53979.07
2022-11-27T17:54:56.036Z,54001.12
2022-11-27T17:55:58.804Z,54003.12
2022-11-27T17:57:01.678Z,54003.12
2022-11-27T17:58:04.652Z,53979.07
2022-11-27T17:59:07.531Z,54008.13
2022-11-27T18:00:10.307Z,54018.16
2022-11-27T18:01:13.233Z,54002.12
2022-11-27T18:02:16.008Z,54011.14
2022-11-27T18:03:19.364Z,54019.16
2022-11-27T18:04:22.028Z,54013.14
2022-11-27T18:05:24.886Z,54076.29
2022-11-27T18:06:27.753Z,54050.23
2022-11-27T18:07:31.026Z,54051.23
2022-11-27T18:08:34.021Z,54065.27
2022-11-27T18:09:36.790Z,54089.32
2022-11-27T18:10:39.561Z,54053.23
2022-11-27T18:11:42.335Z,54064.26
2022-11-27T18:12:45.211Z,54063.26
2022-11-27T18:13:47.982Z,54074.29
2022-11-27T18:14:50.901Z,54097.34
2022-11-27T18:15:53.622Z,54098.34
2022-11-27T18:16:56.605Z,54066.27
2022-11-27T18:17:59.682Z,54110.37
2022-11-27T18:19:02.361Z,54089.32
2022-11-27T18:20:05.343Z,54103.35
2022-11-27T18:21:08.664Z,54109.37
2022-11-27T18:22:11.583Z,54067.27
2022-11-27T18:23:14.364Z,54093.33
2022-11-27T18:24:25.454Z,54108.36
2022-11-27T18:25:22.271Z,54097.34
2022-11-27T18:26:45.620Z,54109.37
2022-11-27T18:27:29.453Z,54139.44
2022-11-27T18:28:32.223Z,54142.44
2022-11-27T18:29:35.197Z,54152.46
2022-11-27T18:30:38.725Z,54135.43
2022-11-27T18:31:41.860Z,54119.39
2022-11-27T18:32:45.050Z,54181.54
2022-11-27T18:33:47.726Z,54138.43
2022-11-27T18:34:50.491Z,54166.50
2022-11-27T18:35:53.571Z,54176.52
2022-11-27T18:36:56.470Z,54160.48
2022-11-27T18:37:59.420Z,54188.55
2022-11-27T18:39:02.502Z,54172.51
2022-11-27T18:40:05.592Z,54175.52
2022-11-27T18:41:08.349Z,54173.52
2022-11-27T18:42:11.953Z,54205.59
2022-11-27T18:43:14.811Z,54182.54
2022-11-27T18:44:17.909Z,54162.49
2022-11-27T18:45:33.304Z,54156.48
2022-11-27T18:46:25.602Z,54204.59
2022-11-27T18:47:29.213Z,54152.46
2022-11-27T18:48:32.066Z,54170.51
2022-11-27T18:49:35.341Z,54170.51
2022-11-27T18:50:38.529Z,54224.64
2022-11-27T18:51:41.300Z,54193.56
2022-11-27T18:52:44.283Z,54200.58
2022-11-27T18:53:47.469Z,54210.60
2022-11-27T18:54:50.433Z,54204.59
2022-11-27T18:55:53.308Z,54226.64
2022-11-27T18:56:56.389Z,54245.68
2022-11-27T18:57:59.273Z,54214.61
2022-11-27T18:59:02.566Z,54258.71
2022-11-27T19:00:05.536Z,54222.63
2022-11-27T19:01:09.304Z,54216.62
2022-11-27T19:02:12.525Z,54234.66
2022-11-27T19:03:15.692Z,54230.65
2022-11-27T19:04:18.563Z,54255.71
2022-11-27T19:05:21.446Z,54225.64
2022-11-27T19:06:24.625Z,54221.63
2022-11-27T19:07:27.555Z,54248.69
2022-11-27T19:08:30.368Z,54255.71
2022-11-27T19:09:33.027Z,54227.64
2022-11-27T19:10:36.421Z,54250.70
2022-11-27T19:11:39.712Z,54257.71
2022-11-27T19:12:42.840Z,54255.71
2022-11-27T19:13:45.955Z,54254.71
2022-11-27T19:14:49.048Z,54293.80
2022-11-27T19:15:52.156Z,54249.70
2022-11-27T19:16:55.138Z,54242.68
2022-11-27T19:17:58.492Z,54248.69
2022-11-27T19:19:01.577Z,54269.74
2022-11-27T19:20:04.635Z,54261.72
2022-11-27T19:21:08.230Z,54261.72
2022-11-27T19:22:10.917Z,54277.76
2022-11-27T19:23:14.405Z,54237.66
2022-11-27T19:24:17.279Z,54285.78
2022-11-27T19:25:20.048Z,54231.65
2022-11-27T19:26:23.223Z,54298.81
2022-11-27T19:27:26.303Z,54251.70
2022-11-27T19:28:29.492Z,54263.73
2022-11-27T19:29:32.670Z,54302.82
2022-11-27T19:30:35.847Z,54271.75
2022-11-27T19:31:38.921Z,54300.81
2022-11-27T19:32:42.017Z,54319.86
2022-11-27T19:33:45.299Z,54307.83
2022-11-27T19:34:48.571Z,54315.85
2022-11-27T19:35:51.547Z,54298.81
2022-11-27T19:36:54.944Z,54368.98
2022-11-27T19:37:57.928Z,54339.91
2022-11-27T19:39:01.304Z,54356.95
2022-11-27T19:40:04.589Z,54312.84
2022-11-27T19:41:07.761Z,54362.96
2022-11-27T19:42:10.954Z,54341.91
2022-11-27T19:43:13.966Z,54353.94
2022-11-27T19:44:16.809Z,54342.91
2022-11-27T19:45:19.887Z,54365.97
2022-11-27T19:46:23.688Z,54356.95
2022-11-27T19:47:27.068Z,54382.01
2022-11-27T19:48:30.245Z,54383.01
2022-11-27T19:49:33.857Z,54366.97
2022-11-27T19:50:36.920Z,54364.96
2022-11-27T19:51:39.906Z,54347.93
2022-11-27T19:52:43.071Z,54389.02
2022-11-27T19:53:46.253Z,54375.99
2022-11-27T19:54:49.751Z,54419.09
2022-11-27T19:55:52.725Z,54374.99
2022-11-27T19:56:56.325Z,54414.09
2022-11-27T19:57:59.512Z,54419.09
2022-11-27T19:59:02.691Z,54408.07
2022-11-27T20:00:05.565Z,54423.11
2022-11-27T20:01:08.500Z,54408.07
2022-11-27T20:02:11.343Z,54430.12
2022-11-27T20:03:14.604Z,54426.11
2022-11-27T20:04:17.570Z,54423.11
2022-11-27T20:05:20.333Z,54429.12
2022-11-27T20:06:23.115Z,54426.11
2022-11-27T20:07:25.912Z,54422.10
2022-11-27T20:08:28.762Z,54434.13
2022-11-27T20:09:32.252Z,54421.10
2022-11-27T20:10:35.525Z,54463.20
2022-11-27T20:11:39.449Z,54415.09
2022-11-27T20:12:42.605Z,54420.10
2022-11-27T20:13:46.220Z,54420.10
2022-11-27T20:14:49.175Z,54399.05
2022-11-27T20:15:52.661Z,54417.09
2022-11-27T20:16:55.913Z,54403.06
2022-11-27T20:17:58.859Z,54422.10
2022-11-27T20:19:01.799Z,54443.15
2022-11-27T20:20:04.987Z,54421.10
2022-11-27T20:21:08.071Z,54440.14
2022-11-27T20:22:10.830Z,54442.15
2022-11-27T20:23:13.815Z,54449.17
2022-11-27T20:24:16.789Z,54402.05
2022-11-27T20:25:20.672Z,54462.20
2022-11-27T20:26:24.905Z,54434.13
2022-11-27T20:27:27.871Z,54412.08
2022-11-27T20:28:31.075Z,54418.09
2022-11-27T20:29:34.244Z,54507.31
2022-11-27T20:30:38.644Z,54461.20
2022-11-27T20:31:41.753Z,54459.19
2022-11-27T20:32:44.906Z,54445.16
2022-11-27T20:33:47.679Z,54431.12
2022-11-27T20:34:50.957Z,54421.10
2022-11-27T20:35:53.857Z,54462.20
2022-11-27T20:36:56.934Z,54433.13
2022-11-27T20:37:59.704Z,54466.21
2022-11-27T20:39:02.469Z,54442.15
2022-11-27T20:40:05.640Z,54473.23
2022-11-27T20:41:09.749Z,54483.25
2022-11-27T20:42:12.519Z,54482.25
2022-11-27T20:43:15.404Z,54489.27
2022-11-27T20:44:18.373Z,54529.36
2022-11-27T20:45:21.651Z,54503.30
2022-11-27T20:46:24.490Z,54548.41
2022-11-27T20:47:27.405Z,54503.30
2022-11-27T20:48:30.708Z,54547.40
2022-11-27T20:49:33.251Z,54549.41
2022-11-27T20:50:36.434Z,54529.36
2022-11-27T20:51:39.717Z,54559.43
2022-11-27T20:52:42.814Z,54551.41
2022-11-27T20:53:45.675Z,54564.45
2022-11-27T20:54:48.855Z,54601.54
2022-11-27T20:55:51.735Z,54581.49
2022-11-27T20:56:55.231Z,54572.46
2022-11-27T20:57:58.302Z,54576.47
2022-11-27T20:59:01.395Z,54601.54
2022-11-27T21:00:04.661Z,54607.55
2022-11-27T21:01:08.038Z,54633.61
2022-11-27T21:02:11.368Z,54648.65
2022-11-27T21:03:14.680Z,54629.61
2022-11-27T21:04:17.809Z,54649.65
2022-11-27T21:05:20.797Z,54653.66
2022-11-27T21:06:23.971Z,54627.60
2022-11-27T21:07:28.059Z,54692.76
2022-11-27T21:08:31.889Z,54664.69
2022-11-27T21:09:35.050Z,54697.77
2022-11-27T21:10:39.068Z,54702.79
2022-11-27T21:11:42.645Z,54718.82
2022-11-27T21:12:45.840Z,54748.90
2022-11-27T21:13:49.102Z,54723.84
2022-11-27T21:14:52.292Z,54749.90
2022-11-27T21:15:55.365Z,54769.95
2022-11-27T21:17:04.350Z,54724.84
2022-11-27T21:18:03.686Z,54801.03
2022-11-27T21:19:06.955Z,54796.02
2022-11-27T21:20:09.935Z,54834.11
2022-11-27T21:21:13.539Z,54833.11
2022-11-27T21:22:16.344Z,54807.04
2022-11-27T21:23:19.497Z,54850.15
2022-11-27T21:24:22.834Z,54839.12
2022-11-27T21:25:25.886Z,54837.12
2022-11-27T21:26:29.121Z,54915.31
2022-11-27T21:27:31.906Z,54913.31
2022-11-27T21:28:35.287Z,54982.48
2022-11-27T21:29:39.181Z,55034.62
2022-11-27T21:30:42.092Z,57225.80
2022-11-27T21:31:47.066Z,57765.51
2022-11-27T21:32:49.573Z,58107.63
2022-11-27T21:33:52.218Z,58341.42
2022-11-27T21:34:54.989Z,58699.64
2022-11-27T21:35:57.971Z,58705.66
2022-11-27T21:37:01.245Z,58776.91
2022-11-27T21:38:04.339Z,58796.98
2022-11-27T21:39:08.043Z,58828.09
2022-11-27T21:40:11.417Z,58951.53
2022-11-27T21:41:14.389Z,58956.55
2022-11-27T21:42:17.566Z,59022.78
2022-11-27T21:43:20.550Z,59055.89
2022-11-27T21:44:27.037Z,59062.92
2022-11-27T21:45:30.425Z,59072.96
2022-11-27T21:46:33.303Z,59183.35
2022-11-27T21:47:36.348Z,59174.32
2022-11-27T21:48:39.433Z,59195.39
2022-11-27T21:49:42.507Z,59247.58
2022-11-27T21:50:45.888Z,59192.39
2022-11-27T21:51:48.966Z,59265.65
2022-11-27T21:52:51.956Z,59393.11
2022-11-27T21:53:54.923Z,59620.95
2022-11-27T21:54:58.036Z,59801.62
2022-11-27T21:56:00.787Z,59928.10